sensor_id;sensor_type;location;lat;lon;timestamp;P1;durP1;ratioP1;P2;durP2;ratioP2
66741;SDS011;53654;54.152;19.432;2023-05-15T00:00:28;4.70;;;4.10;;
66741;SDS011;53654;54.152;19.432;2023-05-15T00:03:17;5.70;;;4.00;;
66741;SDS011;53654;54.152;19.432;2023-05-15T00:05:45;5.50;;;4.10;;
66741;SDS011;53654;54.152;19.432;2023-05-15T00:08:13;6.30;;;4.10;;
66741;SDS011;53654;54.152;19.432;2023-05-15T00:10:42;5.70;;;4.00;;
66741;SDS011;53654;54.152;19.432;2023-05-15T00:13:27;4.10;;;3.80;;
66741;SDS011;53654;54.152;19.432;2023-05-15T00:15:55;4.60;;;4.20;;
66741;SDS011;53654;54.152;19.432;2023-05-15T00:18:23;5.30;;;4.50;;
66741;SDS011;53654;54.152;19.432;2023-05-15T00:20:51;5.10;;;4.10;;
66741;SDS011;53654;54.152;19.432;2023-05-15T00:23:20;5.40;;;4.60;;
66741;SDS011;53654;54.152;19.432;2023-05-15T00:25:48;5.30;;;4.20;;
66741;SDS011;53654;54.152;19.432;2023-05-15T00:28:16;6.10;;;4.20;;
66741;SDS011;53654;54.152;19.432;2023-05-15T00:30:44;4.90;;;4.10;;
66741;SDS011;53654;54.152;19.432;2023-05-15T00:33:12;5.00;;;4.10;;
66741;SDS011;53654;54.152;19.432;2023-05-15T00:35:40;4.60;;;4.20;;
66741;SDS011;53654;54.152;19.432;2023-05-15T00:38:08;5.80;;;4.70;;
66741;SDS011;53654;54.152;19.432;2023-05-15T00:40:36;4.80;;;4.10;;
66741;SDS011;53654;54.152;19.432;2023-05-15T00:43:05;4.50;;;4.10;;
66741;SDS011;53654;54.152;19.432;2023-05-15T00:45:37;5.00;;;4.20;;
66741;SDS011;53654;54.152;19.432;2023-05-15T00:48:10;4.80;;;4.10;;
66741;SDS011;53654;54.152;19.432;2023-05-15T00:50:39;4.80;;;4.10;;
66741;SDS011;53654;54.152;19.432;2023-05-15T00:53:08;5.70;;;4.40;;
66741;SDS011;53654;54.152;19.432;2023-05-15T00:55:37;5.00;;;4.50;;
66741;SDS011;53654;54.152;19.432;2023-05-15T00:58:06;4.20;;;3.80;;
66741;SDS011;53654;54.152;19.432;2023-05-15T01:00:35;4.80;;;4.30;;
66741;SDS011;53654;54.152;19.432;2023-05-15T01:03:04;4.50;;;4.10;;
66741;SDS011;53654;54.152;19.432;2023-05-15T01:05:33;4.10;;;3.70;;
66741;SDS011;53654;54.152;19.432;2023-05-15T01:10:50;5.00;;;4.50;;
66741;SDS011;53654;54.152;19.432;2023-05-15T01:13:19;4.70;;;4.10;;
66741;SDS011;53654;54.152;19.432;2023-05-15T01:15:49;4.60;;;4.20;;
66741;SDS011;53654;54.152;19.432;2023-05-15T01:18:17;5.20;;;4.00;;
66741;SDS011;53654;54.152;19.432;2023-05-15T01:20:54;4.60;;;4.20;;
66741;SDS011;53654;54.152;19.432;2023-05-15T01:29:22;4.50;;;4.10;;
66741;SDS011;53654;54.152;19.432;2023-05-15T01:31:56;4.90;;;4.00;;
66741;SDS011;53654;54.152;19.432;2023-05-15T01:34:31;4.50;;;4.00;;
66741;SDS011;53654;54.152;19.432;2023-05-15T01:37:06;4.10;;;3.70;;
66741;SDS011;53654;54.152;19.432;2023-05-15T01:39:35;5.60;;;4.30;;
66741;SDS011;53654;54.152;19.432;2023-05-15T01:42:09;5.50;;;4.00;;
66741;SDS011;53654;54.152;19.432;2023-05-15T01:44:40;5.70;;;4.20;;
66741;SDS011;53654;54.152;19.432;2023-05-15T01:47:13;4.40;;;4.00;;
66741;SDS011;53654;54.152;19.432;2023-05-15T01:49:44;4.80;;;4.10;;
66741;SDS011;53654;54.152;19.432;2023-05-15T01:52:29;5.60;;;3.80;;
66741;SDS011;53654;54.152;19.432;2023-05-15T01:55:01;5.00;;;4.10;;
66741;SDS011;53654;54.152;19.432;2023-05-15T01:57:29;5.10;;;4.10;;
66741;SDS011;53654;54.152;19.432;2023-05-15T01:59:58;6.40;;;4.20;;
66741;SDS011;53654;54.152;19.432;2023-05-15T02:02:29;5.70;;;4.10;;
66741;SDS011;53654;54.152;19.432;2023-05-15T02:04:58;4.50;;;4.00;;
66741;SDS011;53654;54.152;19.432;2023-05-15T02:07:27;4.80;;;4.30;;
66741;SDS011;53654;54.152;19.432;2023-05-15T02:09:56;5.40;;;4.40;;
66741;SDS011;53654;54.152;19.432;2023-05-15T02:12:25;4.70;;;4.30;;
66741;SDS011;53654;54.152;19.432;2023-05-15T02:14:54;6.00;;;5.50;;
66741;SDS011;53654;54.152;19.432;2023-05-15T02:17:25;5.00;;;4.50;;
66741;SDS011;53654;54.152;19.432;2023-05-15T02:19:56;4.90;;;4.40;;
66741;SDS011;53654;54.152;19.432;2023-05-15T02:22:24;6.70;;;4.80;;
66741;SDS011;53654;54.152;19.432;2023-05-15T02:24:52;5.20;;;4.50;;
66741;SDS011;53654;54.152;19.432;2023-05-15T02:27:24;6.80;;;4.50;;
66741;SDS011;53654;54.152;19.432;2023-05-15T02:33:02;5.10;;;4.40;;
66741;SDS011;53654;54.152;19.432;2023-05-15T02:35:56;7.30;;;4.70;;
66741;SDS011;53654;54.152;19.432;2023-05-15T02:38:30;5.30;;;4.50;;
66741;SDS011;53654;54.152;19.432;2023-05-15T02:41:05;6.00;;;4.60;;
66741;SDS011;53654;54.152;19.432;2023-05-15T02:43:34;5.30;;;4.80;;
66741;SDS011;53654;54.152;19.432;2023-05-15T02:46:03;5.10;;;4.60;;
66741;SDS011;53654;54.152;19.432;2023-05-15T02:48:34;4.80;;;4.40;;
66741;SDS011;53654;54.152;19.432;2023-05-15T02:51:06;8.00;;;4.60;;
66741;SDS011;53654;54.152;19.432;2023-05-15T02:53:41;5.90;;;4.90;;
66741;SDS011;53654;54.152;19.432;2023-05-15T02:56:10;5.30;;;4.70;;
66741;SDS011;53654;54.152;19.432;2023-05-15T02:58:38;5.30;;;4.80;;
66741;SDS011;53654;54.152;19.432;2023-05-15T03:01:07;4.70;;;4.30;;
66741;SDS011;53654;54.152;19.432;2023-05-15T03:03:35;4.80;;;4.40;;
66741;SDS011;53654;54.152;19.432;2023-05-15T03:06:03;4.50;;;4.20;;
66741;SDS011;53654;54.152;19.432;2023-05-15T03:08:31;4.60;;;4.10;;
66741;SDS011;53654;54.152;19.432;2023-05-15T03:11:00;5.00;;;4.40;;
66741;SDS011;53654;54.152;19.432;2023-05-15T03:13:28;5.20;;;4.30;;
66741;SDS011;53654;54.152;19.432;2023-05-15T03:15:56;5.20;;;4.30;;
66741;SDS011;53654;54.152;19.432;2023-05-15T03:18:24;5.50;;;4.80;;
66741;SDS011;53654;54.152;19.432;2023-05-15T03:20:52;5.00;;;4.60;;
66741;SDS011;53654;54.152;19.432;2023-05-15T03:23:21;6.10;;;4.60;;
66741;SDS011;53654;54.152;19.432;2023-05-15T03:25:49;5.30;;;4.70;;
66741;SDS011;53654;54.152;19.432;2023-05-15T03:28:17;6.40;;;4.50;;
66741;SDS011;53654;54.152;19.432;2023-05-15T03:30:45;5.30;;;4.80;;
66741;SDS011;53654;54.152;19.432;2023-05-15T03:33:13;6.30;;;4.90;;
66741;SDS011;53654;54.152;19.432;2023-05-15T03:35:41;5.20;;;4.70;;
66741;SDS011;53654;54.152;19.432;2023-05-15T03:38:11;5.20;;;4.60;;
66741;SDS011;53654;54.152;19.432;2023-05-15T03:40:39;5.30;;;4.80;;
66741;SDS011;53654;54.152;19.432;2023-05-15T03:43:07;5.40;;;4.90;;
66741;SDS011;53654;54.152;19.432;2023-05-15T03:45:35;7.60;;;4.70;;
66741;SDS011;53654;54.152;19.432;2023-05-15T03:48:04;5.50;;;4.90;;
66741;SDS011;53654;54.152;19.432;2023-05-15T03:50:32;5.40;;;4.90;;
66741;SDS011;53654;54.152;19.432;2023-05-15T03:53:00;5.20;;;4.70;;
66741;SDS011;53654;54.152;19.432;2023-05-15T03:55:28;5.60;;;5.10;;
66741;SDS011;53654;54.152;19.432;2023-05-15T03:57:56;6.50;;;4.90;;
66741;SDS011;53654;54.152;19.432;2023-05-15T04:00:25;5.20;;;4.80;;
66741;SDS011;53654;54.152;19.432;2023-05-15T04:02:53;6.50;;;5.00;;
66741;SDS011;53654;54.152;19.432;2023-05-15T04:05:22;6.10;;;4.90;;
66741;SDS011;53654;54.152;19.432;2023-05-15T04:07:50;7.50;;;5.10;;
66741;SDS011;53654;54.152;19.432;2023-05-15T04:10:18;5.50;;;4.80;;
66741;SDS011;53654;54.152;19.432;2023-05-15T04:12:47;5.50;;;4.90;;
66741;SDS011;53654;54.152;19.432;2023-05-15T04:15:21;5.70;;;4.90;;
66741;SDS011;53654;54.152;19.432;2023-05-15T04:17:51;5.50;;;5.00;;
66741;SDS011;53654;54.152;19.432;2023-05-15T04:20:22;5.90;;;5.10;;
66741;SDS011;53654;54.152;19.432;2023-05-15T04:22:51;6.10;;;4.90;;
66741;SDS011;53654;54.152;19.432;2023-05-15T04:25:19;5.30;;;4.90;;
66741;SDS011;53654;54.152;19.432;2023-05-15T04:27:48;5.10;;;4.60;;
66741;SDS011;53654;54.152;19.432;2023-05-15T04:30:16;5.50;;;5.00;;
66741;SDS011;53654;54.152;19.432;2023-05-15T04:32:44;6.20;;;5.00;;
66741;SDS011;53654;54.152;19.432;2023-05-15T04:35:12;6.50;;;5.00;;
66741;SDS011;53654;54.152;19.432;2023-05-15T04:37:42;7.10;;;5.00;;
66741;SDS011;53654;54.152;19.432;2023-05-15T04:40:12;6.10;;;4.70;;
66741;SDS011;53654;54.152;19.432;2023-05-15T04:42:43;5.20;;;4.80;;
66741;SDS011;53654;54.152;19.432;2023-05-15T04:45:11;6.60;;;4.90;;
66741;SDS011;53654;54.152;19.432;2023-05-15T04:47:39;5.40;;;4.70;;
66741;SDS011;53654;54.152;19.432;2023-05-15T04:50:08;6.30;;;4.70;;
66741;SDS011;53654;54.152;19.432;2023-05-15T04:52:36;5.30;;;4.80;;
66741;SDS011;53654;54.152;19.432;2023-05-15T04:55:04;6.10;;;4.70;;
66741;SDS011;53654;54.152;19.432;2023-05-15T04:57:33;6.30;;;4.90;;
66741;SDS011;53654;54.152;19.432;2023-05-15T05:00:01;6.00;;;4.70;;
66741;SDS011;53654;54.152;19.432;2023-05-15T05:02:32;5.90;;;5.00;;
66741;SDS011;53654;54.152;19.432;2023-05-15T05:05:00;5.70;;;4.70;;
66741;SDS011;53654;54.152;19.432;2023-05-15T05:07:28;5.30;;;4.90;;
66741;SDS011;53654;54.152;19.432;2023-05-15T05:09:56;5.60;;;5.10;;
66741;SDS011;53654;54.152;19.432;2023-05-15T05:12:24;5.60;;;5.00;;
66741;SDS011;53654;54.152;19.432;2023-05-15T05:14:54;7.90;;;5.10;;
66741;SDS011;53654;54.152;19.432;2023-05-15T05:17:23;5.40;;;4.50;;
66741;SDS011;53654;54.152;19.432;2023-05-15T05:19:51;6.20;;;4.80;;
66741;SDS011;53654;54.152;19.432;2023-05-15T05:22:19;7.30;;;5.10;;
66741;SDS011;53654;54.152;19.432;2023-05-15T05:24:47;5.30;;;4.80;;
66741;SDS011;53654;54.152;19.432;2023-05-15T05:27:15;5.60;;;5.00;;
66741;SDS011;53654;54.152;19.432;2023-05-15T05:29:43;5.10;;;4.60;;
66741;SDS011;53654;54.152;19.432;2023-05-15T05:32:11;6.00;;;5.00;;
66741;SDS011;53654;54.152;19.432;2023-05-15T05:34:39;5.70;;;5.20;;
66741;SDS011;53654;54.152;19.432;2023-05-15T05:37:07;6.10;;;5.10;;
66741;SDS011;53654;54.152;19.432;2023-05-15T05:39:35;5.60;;;4.90;;
66741;SDS011;53654;54.152;19.432;2023-05-15T05:42:04;5.90;;;5.10;;
66741;SDS011;53654;54.152;19.432;2023-05-15T05:44:32;5.40;;;4.90;;
66741;SDS011;53654;54.152;19.432;2023-05-15T05:47:01;7.00;;;5.10;;
66741;SDS011;53654;54.152;19.432;2023-05-15T05:49:29;5.80;;;5.30;;
66741;SDS011;53654;54.152;19.432;2023-05-15T05:52:03;5.60;;;5.10;;
66741;SDS011;53654;54.152;19.432;2023-05-15T05:54:32;6.20;;;5.20;;
66741;SDS011;53654;54.152;19.432;2023-05-15T05:57:00;6.30;;;5.00;;
66741;SDS011;53654;54.152;19.432;2023-05-15T05:59:28;5.20;;;4.80;;
66741;SDS011;53654;54.152;19.432;2023-05-15T06:01:57;6.40;;;5.10;;
66741;SDS011;53654;54.152;19.432;2023-05-15T06:04:25;6.30;;;5.30;;
66741;SDS011;53654;54.152;19.432;2023-05-15T06:06:53;6.00;;;5.30;;
66741;SDS011;53654;54.152;19.432;2023-05-15T06:09:21;6.60;;;5.20;;
66741;SDS011;53654;54.152;19.432;2023-05-15T06:11:49;5.70;;;5.20;;
66741;SDS011;53654;54.152;19.432;2023-05-15T06:14:17;6.50;;;5.40;;
66741;SDS011;53654;54.152;19.432;2023-05-15T06:16:46;6.40;;;5.50;;
66741;SDS011;53654;54.152;19.432;2023-05-15T06:19:14;6.80;;;5.30;;
66741;SDS011;53654;54.152;19.432;2023-05-15T06:21:42;5.80;;;5.30;;
66741;SDS011;53654;54.152;19.432;2023-05-15T06:24:10;5.90;;;5.10;;
66741;SDS011;53654;54.152;19.432;2023-05-15T06:26:38;6.00;;;5.40;;
66741;SDS011;53654;54.152;19.432;2023-05-15T06:29:07;6.10;;;5.20;;
66741;SDS011;53654;54.152;19.432;2023-05-15T06:31:34;7.00;;;5.60;;
66741;SDS011;53654;54.152;19.432;2023-05-15T06:34:03;6.20;;;4.90;;
66741;SDS011;53654;54.152;19.432;2023-05-15T06:36:31;5.60;;;5.10;;
66741;SDS011;53654;54.152;19.432;2023-05-15T06:38:59;8.90;;;5.20;;
66741;SDS011;53654;54.152;19.432;2023-05-15T06:41:27;7.20;;;5.00;;
66741;SDS011;53654;54.152;19.432;2023-05-15T06:43:55;7.00;;;4.90;;
66741;SDS011;53654;54.152;19.432;2023-05-15T06:46:23;5.80;;;4.70;;
66741;SDS011;53654;54.152;19.432;2023-05-15T06:48:51;5.60;;;5.10;;
66741;SDS011;53654;54.152;19.432;2023-05-15T06:51:19;5.50;;;5.00;;
66741;SDS011;53654;54.152;19.432;2023-05-15T06:53:47;6.00;;;5.40;;
66741;SDS011;53654;54.152;19.432;2023-05-15T06:56:15;7.00;;;4.70;;
66741;SDS011;53654;54.152;19.432;2023-05-15T06:58:43;5.60;;;5.10;;
66741;SDS011;53654;54.152;19.432;2023-05-15T07:01:11;5.40;;;4.90;;
66741;SDS011;53654;54.152;19.432;2023-05-15T07:03:39;5.50;;;5.00;;
66741;SDS011;53654;54.152;19.432;2023-05-15T07:06:09;6.30;;;4.90;;
66741;SDS011;53654;54.152;19.432;2023-05-15T07:08:37;6.30;;;4.80;;
66741;SDS011;53654;54.152;19.432;2023-05-15T07:11:05;8.80;;;5.20;;
66741;SDS011;53654;54.152;19.432;2023-05-15T07:13:34;6.90;;;5.50;;
66741;SDS011;53654;54.152;19.432;2023-05-15T07:16:02;6.30;;;4.90;;
66741;SDS011;53654;54.152;19.432;2023-05-15T07:18:30;6.60;;;4.70;;
66741;SDS011;53654;54.152;19.432;2023-05-15T07:20:59;5.70;;;4.80;;
66741;SDS011;53654;54.152;19.432;2023-05-15T07:23:27;6.70;;;5.00;;
66741;SDS011;53654;54.152;19.432;2023-05-15T07:25:55;5.50;;;5.00;;
66741;SDS011;53654;54.152;19.432;2023-05-15T07:28:23;7.40;;;4.90;;
66741;SDS011;53654;54.152;19.432;2023-05-15T07:30:51;5.50;;;5.00;;
66741;SDS011;53654;54.152;19.432;2023-05-15T07:33:19;5.70;;;5.10;;
66741;SDS011;53654;54.152;19.432;2023-05-15T07:35:49;7.40;;;5.80;;
66741;SDS011;53654;54.152;19.432;2023-05-15T07:38:17;7.20;;;4.60;;
66741;SDS011;53654;54.152;19.432;2023-05-15T07:40:45;6.60;;;5.50;;
66741;SDS011;53654;54.152;19.432;2023-05-15T07:43:13;6.00;;;4.90;;
66741;SDS011;53654;54.152;19.432;2023-05-15T07:45:41;5.60;;;4.80;;
66741;SDS011;53654;54.152;19.432;2023-05-15T07:48:13;6.10;;;4.90;;
66741;SDS011;53654;54.152;19.432;2023-05-15T07:50:43;6.30;;;5.30;;
66741;SDS011;53654;54.152;19.432;2023-05-15T07:53:15;5.20;;;4.70;;
66741;SDS011;53654;54.152;19.432;2023-05-15T07:55:43;5.00;;;4.40;;
66741;SDS011;53654;54.152;19.432;2023-05-15T07:58:11;7.40;;;4.80;;
66741;SDS011;53654;54.152;19.432;2023-05-15T08:00:39;8.70;;;4.90;;
66741;SDS011;53654;54.152;19.432;2023-05-15T08:03:07;6.70;;;4.90;;
66741;SDS011;53654;54.152;19.432;2023-05-15T08:05:37;5.50;;;4.80;;
66741;SDS011;53654;54.152;19.432;2023-05-15T08:08:05;6.00;;;4.70;;
66741;SDS011;53654;54.152;19.432;2023-05-15T08:10:33;5.80;;;4.60;;
66741;SDS011;53654;54.152;19.432;2023-05-15T08:13:02;4.90;;;4.30;;
66741;SDS011;53654;54.152;19.432;2023-05-15T08:15:30;6.30;;;4.60;;
66741;SDS011;53654;54.152;19.432;2023-05-15T08:17:58;5.90;;;4.60;;
66741;SDS011;53654;54.152;19.432;2023-05-15T08:20:26;7.30;;;4.70;;
66741;SDS011;53654;54.152;19.432;2023-05-15T08:22:54;6.20;;;4.60;;
66741;SDS011;53654;54.152;19.432;2023-05-15T08:25:22;6.40;;;4.50;;
66741;SDS011;53654;54.152;19.432;2023-05-15T08:27:50;5.50;;;4.60;;
66741;SDS011;53654;54.152;19.432;2023-05-15T08:30:18;5.60;;;4.60;;
66741;SDS011;53654;54.152;19.432;2023-05-15T08:32:46;5.90;;;4.40;;
66741;SDS011;53654;54.152;19.432;2023-05-15T08:35:15;5.60;;;4.60;;
66741;SDS011;53654;54.152;19.432;2023-05-15T08:37:43;5.20;;;4.20;;
66741;SDS011;53654;54.152;19.432;2023-05-15T08:40:12;8.00;;;4.20;;
66741;SDS011;53654;54.152;19.432;2023-05-15T08:42:42;5.20;;;4.20;;
66741;SDS011;53654;54.152;19.432;2023-05-15T08:45:12;5.00;;;4.30;;
66741;SDS011;53654;54.152;19.432;2023-05-15T08:47:41;6.30;;;4.40;;
66741;SDS011;53654;54.152;19.432;2023-05-15T08:50:13;6.60;;;4.30;;
66741;SDS011;53654;54.152;19.432;2023-05-15T08:52:46;5.90;;;4.60;;
66741;SDS011;53654;54.152;19.432;2023-05-15T08:55:15;5.80;;;4.90;;
66741;SDS011;53654;54.152;19.432;2023-05-15T08:57:43;7.30;;;5.30;;
66741;SDS011;53654;54.152;19.432;2023-05-15T09:00:14;5.20;;;4.80;;
66741;SDS011;53654;54.152;19.432;2023-05-15T09:02:47;6.00;;;4.60;;
66741;SDS011;53654;54.152;19.432;2023-05-15T09:05:15;4.80;;;4.00;;
66741;SDS011;53654;54.152;19.432;2023-05-15T09:07:43;5.10;;;4.30;;
66741;SDS011;53654;54.152;19.432;2023-05-15T09:10:13;5.90;;;4.50;;
66741;SDS011;53654;54.152;19.432;2023-05-15T09:12:42;5.40;;;4.60;;
66741;SDS011;53654;54.152;19.432;2023-05-15T09:15:14;7.40;;;4.10;;
66741;SDS011;53654;54.152;19.432;2023-05-15T09:17:44;6.20;;;4.80;;
66741;SDS011;53654;54.152;19.432;2023-05-15T09:22:58;6.40;;;4.50;;
66741;SDS011;53654;54.152;19.432;2023-05-15T09:25:37;5.00;;;4.50;;
66741;SDS011;53654;54.152;19.432;2023-05-15T09:28:08;4.50;;;4.10;;
66741;SDS011;53654;54.152;19.432;2023-05-15T09:30:38;7.30;;;4.40;;
66741;SDS011;53654;54.152;19.432;2023-05-15T09:33:09;6.60;;;4.30;;
66741;SDS011;53654;54.152;19.432;2023-05-15T09:35:38;4.00;;;3.60;;
66741;SDS011;53654;54.152;19.432;2023-05-15T09:38:08;5.00;;;3.80;;
66741;SDS011;53654;54.152;19.432;2023-05-15T09:40:38;5.70;;;4.50;;
66741;SDS011;53654;54.152;19.432;2023-05-15T09:43:10;5.40;;;4.50;;
66741;SDS011;53654;54.152;19.432;2023-05-15T09:45:41;6.00;;;4.60;;
66741;SDS011;53654;54.152;19.432;2023-05-15T09:48:09;5.60;;;5.00;;
66741;SDS011;53654;54.152;19.432;2023-05-15T09:50:40;6.50;;;4.40;;
66741;SDS011;53654;54.152;19.432;2023-05-15T09:53:10;6.10;;;4.80;;
66741;SDS011;53654;54.152;19.432;2023-05-15T09:55:40;7.40;;;4.90;;
66741;SDS011;53654;54.152;19.432;2023-05-15T09:58:10;7.80;;;4.80;;
66741;SDS011;53654;54.152;19.432;2023-05-15T10:00:40;7.40;;;5.00;;
66741;SDS011;53654;54.152;19.432;2023-05-15T10:03:19;6.70;;;4.40;;
66741;SDS011;53654;54.152;19.432;2023-05-15T10:05:48;4.90;;;4.40;;
66741;SDS011;53654;54.152;19.432;2023-05-15T10:08:24;5.60;;;4.40;;
66741;SDS011;53654;54.152;19.432;2023-05-15T10:10:54;4.60;;;4.20;;
66741;SDS011;53654;54.152;19.432;2023-05-15T10:13:26;6.00;;;4.00;;
66741;SDS011;53654;54.152;19.432;2023-05-15T10:15:58;4.80;;;4.30;;
66741;SDS011;53654;54.152;19.432;2023-05-15T10:18:28;5.70;;;4.20;;
66741;SDS011;53654;54.152;19.432;2023-05-15T10:20:58;5.70;;;4.40;;
66741;SDS011;53654;54.152;19.432;2023-05-15T10:23:31;5.20;;;4.40;;
66741;SDS011;53654;54.152;19.432;2023-05-15T10:26:07;4.30;;;3.90;;
66741;SDS011;53654;54.152;19.432;2023-05-15T10:28:40;4.20;;;3.60;;
66741;SDS011;53654;54.152;19.432;2023-05-15T10:31:11;3.80;;;3.40;;
66741;SDS011;53654;54.152;19.432;2023-05-15T10:33:40;4.30;;;3.50;;
66741;SDS011;53654;54.152;19.432;2023-05-15T10:36:10;4.90;;;3.80;;
66741;SDS011;53654;54.152;19.432;2023-05-15T10:38:39;4.20;;;3.30;;
66741;SDS011;53654;54.152;19.432;2023-05-15T10:41:08;5.10;;;3.50;;
66741;SDS011;53654;54.152;19.432;2023-05-15T10:43:44;3.50;;;3.30;;
66741;SDS011;53654;54.152;19.432;2023-05-15T10:46:13;4.10;;;3.50;;
66741;SDS011;53654;54.152;19.432;2023-05-15T10:48:42;4.00;;;3.60;;
66741;SDS011;53654;54.152;19.432;2023-05-15T10:51:14;4.10;;;3.50;;
66741;SDS011;53654;54.152;19.432;2023-05-15T10:53:50;4.40;;;3.90;;
66741;SDS011;53654;54.152;19.432;2023-05-15T10:56:19;4.00;;;3.60;;
66741;SDS011;53654;54.152;19.432;2023-05-15T10:58:48;4.30;;;3.70;;
66741;SDS011;53654;54.152;19.432;2023-05-15T11:01:24;4.40;;;4.00;;
66741;SDS011;53654;54.152;19.432;2023-05-15T11:04:08;4.20;;;3.80;;
66741;SDS011;53654;54.152;19.432;2023-05-15T11:06:47;5.00;;;4.40;;
66741;SDS011;53654;54.152;19.432;2023-05-15T11:11:56;7.20;;;4.30;;
66741;SDS011;53654;54.152;19.432;2023-05-15T11:22:27;4.90;;;4.40;;
66741;SDS011;53654;54.152;19.432;2023-05-15T11:25:04;6.20;;;4.40;;
66741;SDS011;53654;54.152;19.432;2023-05-15T11:27:41;4.90;;;4.50;;
66741;SDS011;53654;54.152;19.432;2023-05-15T11:30:33;7.20;;;4.90;;
66741;SDS011;53654;54.152;19.432;2023-05-15T11:33:07;5.80;;;4.50;;
66741;SDS011;53654;54.152;19.432;2023-05-15T11:38:14;5.40;;;4.50;;
66741;SDS011;53654;54.152;19.432;2023-05-15T11:40:47;6.80;;;4.70;;
66741;SDS011;53654;54.152;19.432;2023-05-15T11:43:24;5.20;;;4.40;;
66741;SDS011;53654;54.152;19.432;2023-05-15T11:46:03;6.10;;;4.70;;
66741;SDS011;53654;54.152;19.432;2023-05-15T11:48:36;8.50;;;5.10;;
66741;SDS011;53654;54.152;19.432;2023-05-15T11:51:17;5.80;;;4.90;;
66741;SDS011;53654;54.152;19.432;2023-05-15T11:53:48;5.90;;;5.00;;
66741;SDS011;53654;54.152;19.432;2023-05-15T11:56:18;6.50;;;4.60;;
66741;SDS011;53654;54.152;19.432;2023-05-15T11:58:49;5.50;;;4.70;;
66741;SDS011;53654;54.152;19.432;2023-05-15T12:01:37;5.20;;;4.50;;
66741;SDS011;53654;54.152;19.432;2023-05-15T12:04:16;5.20;;;4.30;;
66741;SDS011;53654;54.152;19.432;2023-05-15T12:06:45;6.30;;;4.00;;
66741;SDS011;53654;54.152;19.432;2023-05-15T12:09:16;4.80;;;3.90;;
66741;SDS011;53654;54.152;19.432;2023-05-15T12:11:52;4.50;;;3.90;;
66741;SDS011;53654;54.152;19.432;2023-05-15T12:14:25;5.60;;;3.80;;
66741;SDS011;53654;54.152;19.432;2023-05-15T12:16:58;5.40;;;3.90;;
66741;SDS011;53654;54.152;19.432;2023-05-15T12:19:29;4.40;;;3.80;;
66741;SDS011;53654;54.152;19.432;2023-05-15T12:21:58;5.20;;;3.80;;
66741;SDS011;53654;54.152;19.432;2023-05-15T12:24:26;4.70;;;4.30;;
66741;SDS011;53654;54.152;19.432;2023-05-15T12:26:54;4.30;;;3.90;;
66741;SDS011;53654;54.152;19.432;2023-05-15T12:29:24;5.30;;;4.00;;
66741;SDS011;53654;54.152;19.432;2023-05-15T12:31:53;5.10;;;4.10;;
66741;SDS011;53654;54.152;19.432;2023-05-15T12:34:21;6.70;;;3.50;;
66741;SDS011;53654;54.152;19.432;2023-05-15T12:36:49;4.90;;;4.00;;
66741;SDS011;53654;54.152;19.432;2023-05-15T12:39:17;5.60;;;3.70;;
66741;SDS011;53654;54.152;19.432;2023-05-15T12:41:46;4.70;;;3.70;;
66741;SDS011;53654;54.152;19.432;2023-05-15T12:44:16;4.40;;;3.50;;
66741;SDS011;53654;54.152;19.432;2023-05-15T12:46:45;5.50;;;3.50;;
66741;SDS011;53654;54.152;19.432;2023-05-15T12:49:19;4.40;;;3.30;;
66741;SDS011;53654;54.152;19.432;2023-05-15T12:51:49;4.90;;;3.40;;
66741;SDS011;53654;54.152;19.432;2023-05-15T12:54:20;3.70;;;3.30;;
66741;SDS011;53654;54.152;19.432;2023-05-15T12:56:48;4.40;;;3.60;;
66741;SDS011;53654;54.152;19.432;2023-05-15T12:59:16;3.30;;;3.00;;
66741;SDS011;53654;54.152;19.432;2023-05-15T13:01:45;4.10;;;3.30;;
66741;SDS011;53654;54.152;19.432;2023-05-15T13:04:14;5.50;;;3.20;;
66741;SDS011;53654;54.152;19.432;2023-05-15T13:06:42;4.40;;;3.30;;
66741;SDS011;53654;54.152;19.432;2023-05-15T13:09:20;4.60;;;3.40;;
66741;SDS011;53654;54.152;19.432;2023-05-15T13:11:49;3.80;;;3.10;;
66741;SDS011;53654;54.152;19.432;2023-05-15T13:14:17;6.30;;;3.40;;
66741;SDS011;53654;54.152;19.432;2023-05-15T13:16:46;4.50;;;3.70;;
66741;SDS011;53654;54.152;19.432;2023-05-15T13:19:14;4.80;;;4.10;;
66741;SDS011;53654;54.152;19.432;2023-05-15T13:21:43;4.40;;;3.70;;
66741;SDS011;53654;54.152;19.432;2023-05-15T13:24:12;4.30;;;3.90;;
66741;SDS011;53654;54.152;19.432;2023-05-15T13:26:40;4.30;;;4.00;;
66741;SDS011;53654;54.152;19.432;2023-05-15T13:29:08;4.30;;;4.00;;
66741;SDS011;53654;54.152;19.432;2023-05-15T13:31:36;4.80;;;4.40;;
66741;SDS011;53654;54.152;19.432;2023-05-15T13:34:04;4.60;;;4.10;;
66741;SDS011;53654;54.152;19.432;2023-05-15T13:36:33;5.10;;;4.60;;
66741;SDS011;53654;54.152;19.432;2023-05-15T13:39:00;5.50;;;4.60;;
66741;SDS011;53654;54.152;19.432;2023-05-15T13:41:28;7.00;;;5.60;;
66741;SDS011;53654;54.152;19.432;2023-05-15T13:43:56;5.20;;;4.70;;
66741;SDS011;53654;54.152;19.432;2023-05-15T13:46:24;5.50;;;5.00;;
66741;SDS011;53654;54.152;19.432;2023-05-15T13:48:53;6.00;;;5.50;;
66741;SDS011;53654;54.152;19.432;2023-05-15T13:51:20;6.60;;;6.00;;
66741;SDS011;53654;54.152;19.432;2023-05-15T13:53:49;5.60;;;5.10;;
66741;SDS011;53654;54.152;19.432;2023-05-15T13:56:17;7.60;;;6.30;;
66741;SDS011;53654;54.152;19.432;2023-05-15T13:58:45;6.10;;;5.60;;
66741;SDS011;53654;54.152;19.432;2023-05-15T14:01:13;6.60;;;6.00;;
66741;SDS011;53654;54.152;19.432;2023-05-15T14:03:41;6.50;;;6.00;;
66741;SDS011;53654;54.152;19.432;2023-05-15T14:06:09;6.30;;;5.80;;
66741;SDS011;53654;54.152;19.432;2023-05-15T14:08:37;7.10;;;6.10;;
66741;SDS011;53654;54.152;19.432;2023-05-15T14:11:05;6.50;;;5.90;;
66741;SDS011;53654;54.152;19.432;2023-05-15T14:13:34;6.90;;;6.30;;
66741;SDS011;53654;54.152;19.432;2023-05-15T14:16:02;6.60;;;6.00;;
66741;SDS011;53654;54.152;19.432;2023-05-15T14:18:30;7.00;;;6.40;;
66741;SDS011;53654;54.152;19.432;2023-05-15T14:20:58;6.70;;;6.10;;
66741;SDS011;53654;54.152;19.432;2023-05-15T14:23:26;7.00;;;6.20;;
66741;SDS011;53654;54.152;19.432;2023-05-15T14:25:55;6.80;;;6.20;;
66741;SDS011;53654;54.152;19.432;2023-05-15T14:28:22;6.90;;;6.20;;
66741;SDS011;53654;54.152;19.432;2023-05-15T14:30:51;6.20;;;5.70;;
66741;SDS011;53654;54.152;19.432;2023-05-15T14:33:19;7.10;;;6.20;;
66741;SDS011;53654;54.152;19.432;2023-05-15T14:35:47;7.40;;;6.70;;
66741;SDS011;53654;54.152;19.432;2023-05-15T14:38:16;7.00;;;6.30;;
66741;SDS011;53654;54.152;19.432;2023-05-15T14:40:44;7.40;;;6.60;;
66741;SDS011;53654;54.152;19.432;2023-05-15T14:43:12;7.30;;;6.60;;
66741;SDS011;53654;54.152;19.432;2023-05-15T14:45:40;7.60;;;6.90;;
66741;SDS011;53654;54.152;19.432;2023-05-15T14:48:08;7.20;;;6.50;;
66741;SDS011;53654;54.152;19.432;2023-05-15T14:50:38;8.10;;;7.40;;
66741;SDS011;53654;54.152;19.432;2023-05-15T14:53:06;7.80;;;7.10;;
66741;SDS011;53654;54.152;19.432;2023-05-15T14:55:34;8.10;;;7.20;;
66741;SDS011;53654;54.152;19.432;2023-05-15T14:58:02;8.00;;;7.20;;
66741;SDS011;53654;54.152;19.432;2023-05-15T15:00:30;8.00;;;7.40;;
66741;SDS011;53654;54.152;19.432;2023-05-15T15:02:58;8.10;;;7.40;;
66741;SDS011;53654;54.152;19.432;2023-05-15T15:05:29;8.80;;;8.00;;
66741;SDS011;53654;54.152;19.432;2023-05-15T15:10:32;9.30;;;8.40;;
66741;SDS011;53654;54.152;19.432;2023-05-15T15:13:03;8.50;;;7.70;;
66741;SDS011;53654;54.152;19.432;2023-05-15T15:15:32;7.10;;;6.50;;
66741;SDS011;53654;54.152;19.432;2023-05-15T15:18:01;7.40;;;6.80;;